sensor_id;sensor_type;location;lat;lon;timestamp;P1;durP1;ratioP1;P2;durP2;ratioP2
75930;SDS011;64609;47.052;15.462;2023-04-25T00:00:26;8.20;;;4.72;;
75930;SDS011;64609;47.052;15.462;2023-04-25T00:02:51;8.60;;;4.63;;
75930;SDS011;64609;47.052;15.462;2023-04-25T00:05:17;8.82;;;4.50;;
75930;SDS011;64609;47.052;15.462;2023-04-25T00:07:44;6.07;;;4.30;;
75930;SDS011;64609;47.052;15.462;2023-04-25T00:10:11;5.57;;;4.28;;
75930;SDS011;64609;47.052;15.462;2023-04-25T00:12:37;5.75;;;3.90;;
75930;SDS011;64609;47.052;15.462;2023-04-25T00:15:04;10.48;;;4.25;;
75930;SDS011;64609;47.052;15.462;2023-04-25T00:17:30;5.25;;;4.38;;
75930;SDS011;64609;47.052;15.462;2023-04-25T00:19:56;4.55;;;3.78;;
75930;SDS011;64609;47.052;15.462;2023-04-25T00:22:23;7.45;;;3.97;;
75930;SDS011;64609;47.052;15.462;2023-04-25T00:24:49;8.70;;;4.43;;
75930;SDS011;64609;47.052;15.462;2023-04-25T00:27:15;7.63;;;4.47;;
75930;SDS011;64609;47.052;15.462;2023-04-25T00:29:41;5.63;;;4.15;;
75930;SDS011;64609;47.052;15.462;2023-04-25T00:32:06;6.85;;;4.13;;
75930;SDS011;64609;47.052;15.462;2023-04-25T00:34:32;5.18;;;4.13;;
75930;SDS011;64609;47.052;15.462;2023-04-25T00:36:57;8.57;;;4.55;;
75930;SDS011;64609;47.052;15.462;2023-04-25T00:39:23;6.80;;;4.32;;
75930;SDS011;64609;47.052;15.462;2023-04-25T00:41:49;5.90;;;4.28;;
75930;SDS011;64609;47.052;15.462;2023-04-25T00:44:18;7.35;;;4.10;;
75930;SDS011;64609;47.052;15.462;2023-04-25T00:46:44;7.43;;;4.15;;
75930;SDS011;64609;47.052;15.462;2023-04-25T00:49:12;11.05;;;4.38;;
75930;SDS011;64609;47.052;15.462;2023-04-25T00:51:40;5.65;;;3.92;;
75930;SDS011;64609;47.052;15.462;2023-04-25T00:54:06;7.15;;;4.28;;
75930;SDS011;64609;47.052;15.462;2023-04-25T00:56:32;5.45;;;3.90;;
75930;SDS011;64609;47.052;15.462;2023-04-25T00:58:58;9.02;;;4.60;;
75930;SDS011;64609;47.052;15.462;2023-04-25T01:01:24;6.07;;;4.18;;
75930;SDS011;64609;47.052;15.462;2023-04-25T01:03:49;8.38;;;3.70;;
75930;SDS011;64609;47.052;15.462;2023-04-25T01:06:16;5.97;;;4.30;;
75930;SDS011;64609;47.052;15.462;2023-04-25T01:08:41;6.78;;;4.22;;
75930;SDS011;64609;47.052;15.462;2023-04-25T01:11:07;11.70;;;4.72;;
75930;SDS011;64609;47.052;15.462;2023-04-25T01:13:34;9.27;;;3.90;;
75930;SDS011;64609;47.052;15.462;2023-04-25T01:16:00;6.15;;;4.15;;
75930;SDS011;64609;47.052;15.462;2023-04-25T01:18:26;5.57;;;4.22;;
75930;SDS011;64609;47.052;15.462;2023-04-25T01:20:52;7.45;;;4.28;;
75930;SDS011;64609;47.052;15.462;2023-04-25T01:23:19;8.80;;;3.92;;
75930;SDS011;64609;47.052;15.462;2023-04-25T01:25:45;8.10;;;4.35;;
75930;SDS011;64609;47.052;15.462;2023-04-25T01:28:12;6.88;;;4.22;;
75930;SDS011;64609;47.052;15.462;2023-04-25T01:30:38;6.47;;;4.25;;
75930;SDS011;64609;47.052;15.462;2023-04-25T01:33:04;7.60;;;4.65;;
75930;SDS011;64609;47.052;15.462;2023-04-25T01:35:31;8.23;;;4.18;;
75930;SDS011;64609;47.052;15.462;2023-04-25T01:37:57;5.07;;;4.10;;
75930;SDS011;64609;47.052;15.462;2023-04-25T01:40:23;6.80;;;4.43;;
75930;SDS011;64609;47.052;15.462;2023-04-25T01:42:50;9.35;;;5.30;;
75930;SDS011;64609;47.052;15.462;2023-04-25T01:45:16;8.25;;;4.38;;
75930;SDS011;64609;47.052;15.462;2023-04-25T01:47:42;6.43;;;4.10;;
75930;SDS011;64609;47.052;15.462;2023-04-25T01:50:08;18.02;;;4.82;;
75930;SDS011;64609;47.052;15.462;2023-04-25T01:52:36;7.85;;;4.55;;
75930;SDS011;64609;47.052;15.462;2023-04-25T01:55:02;6.10;;;4.25;;
75930;SDS011;64609;47.052;15.462;2023-04-25T01:57:27;6.65;;;5.00;;
75930;SDS011;64609;47.052;15.462;2023-04-25T01:59:55;8.02;;;4.88;;
75930;SDS011;64609;47.052;15.462;2023-04-25T02:02:24;8.63;;;4.85;;
75930;SDS011;64609;47.052;15.462;2023-04-25T02:04:51;8.98;;;5.03;;
75930;SDS011;64609;47.052;15.462;2023-04-25T02:07:16;5.72;;;4.57;;
75930;SDS011;64609;47.052;15.462;2023-04-25T02:09:42;5.45;;;4.32;;
75930;SDS011;64609;47.052;15.462;2023-04-25T02:12:09;6.55;;;4.82;;
75930;SDS011;64609;47.052;15.462;2023-04-25T02:14:35;5.97;;;4.32;;
75930;SDS011;64609;47.052;15.462;2023-04-25T02:17:01;8.52;;;4.22;;
75930;SDS011;64609;47.052;15.462;2023-04-25T02:19:26;7.80;;;4.80;;
75930;SDS011;64609;47.052;15.462;2023-04-25T02:21:52;6.00;;;4.35;;
75930;SDS011;64609;47.052;15.462;2023-04-25T02:24:18;9.07;;;4.47;;
75930;SDS011;64609;47.052;15.462;2023-04-25T02:26:43;4.93;;;4.32;;
75930;SDS011;64609;47.052;15.462;2023-04-25T02:29:09;7.70;;;4.75;;
75930;SDS011;64609;47.052;15.462;2023-04-25T02:31:35;7.15;;;4.20;;
75930;SDS011;64609;47.052;15.462;2023-04-25T02:34:01;6.85;;;4.38;;
75930;SDS011;64609;47.052;15.462;2023-04-25T02:36:27;9.82;;;4.53;;
75930;SDS011;64609;47.052;15.462;2023-04-25T02:38:52;9.10;;;4.85;;
75930;SDS011;64609;47.052;15.462;2023-04-25T02:41:18;8.02;;;4.30;;
75930;SDS011;64609;47.052;15.462;2023-04-25T02:43:45;5.35;;;4.25;;
75930;SDS011;64609;47.052;15.462;2023-04-25T02:46:11;4.93;;;4.30;;
75930;SDS011;64609;47.052;15.462;2023-04-25T02:48:36;5.25;;;4.25;;
75930;SDS011;64609;47.052;15.462;2023-04-25T02:51:02;5.93;;;4.30;;
75930;SDS011;64609;47.052;15.462;2023-04-25T02:53:28;7.53;;;4.15;;
75930;SDS011;64609;47.052;15.462;2023-04-25T02:55:53;8.25;;;4.38;;
75930;SDS011;64609;47.052;15.462;2023-04-25T02:58:19;8.15;;;4.30;;
75930;SDS011;64609;47.052;15.462;2023-04-25T03:00:45;4.78;;;3.80;;
75930;SDS011;64609;47.052;15.462;2023-04-25T03:03:10;6.70;;;4.00;;
75930;SDS011;64609;47.052;15.462;2023-04-25T03:05:36;4.82;;;3.70;;
75930;SDS011;64609;47.052;15.462;2023-04-25T03:08:02;8.20;;;4.32;;
75930;SDS011;64609;47.052;15.462;2023-04-25T03:10:27;9.23;;;4.20;;
75930;SDS011;64609;47.052;15.462;2023-04-25T03:12:53;5.97;;;3.92;;
75930;SDS011;64609;47.052;15.462;2023-04-25T03:15:19;4.75;;;3.70;;
75930;SDS011;64609;47.052;15.462;2023-04-25T03:17:44;4.68;;;3.67;;
75930;SDS011;64609;47.052;15.462;2023-04-25T03:20:11;6.88;;;4.13;;
75930;SDS011;64609;47.052;15.462;2023-04-25T03:22:37;5.85;;;4.13;;
75930;SDS011;64609;47.052;15.462;2023-04-25T03:25:03;7.13;;;3.80;;
75930;SDS011;64609;47.052;15.462;2023-04-25T03:27:29;6.00;;;3.90;;
75930;SDS011;64609;47.052;15.462;2023-04-25T03:29:54;5.63;;;4.43;;
75930;SDS011;64609;47.052;15.462;2023-04-25T03:32:20;4.47;;;4.07;;
75930;SDS011;64609;47.052;15.462;2023-04-25T03:34:45;10.57;;;4.57;;
75930;SDS011;64609;47.052;15.462;2023-04-25T03:37:11;7.65;;;5.03;;
75930;SDS011;64609;47.052;15.462;2023-04-25T03:39:37;10.23;;;6.00;;
75930;SDS011;64609;47.052;15.462;2023-04-25T03:42:03;8.27;;;5.75;;
75930;SDS011;64609;47.052;15.462;2023-04-25T03:44:29;12.35;;;6.32;;
75930;SDS011;64609;47.052;15.462;2023-04-25T03:46:54;151.73;;;9.65;;
75930;SDS011;64609;47.052;15.462;2023-04-25T03:49:20;12.68;;;7.95;;
75930;SDS011;64609;47.052;15.462;2023-04-25T03:51:46;25.90;;;7.35;;
75930;SDS011;64609;47.052;15.462;2023-04-25T03:54:11;93.43;;;9.30;;
75930;SDS011;64609;47.052;15.462;2023-04-25T03:56:37;29.05;;;8.32;;
75930;SDS011;64609;47.052;15.462;2023-04-25T03:59:02;56.15;;;8.80;;
75930;SDS011;64609;47.052;15.462;2023-04-25T04:01:28;68.07;;;8.40;;
75930;SDS011;64609;47.052;15.462;2023-04-25T04:03:54;63.28;;;9.70;;
75930;SDS011;64609;47.052;15.462;2023-04-25T04:06:19;13.93;;;9.35;;
75930;SDS011;64609;47.052;15.462;2023-04-25T04:08:46;57.55;;;9.13;;
75930;SDS011;64609;47.052;15.462;2023-04-25T04:11:11;50.20;;;9.27;;
75930;SDS011;64609;47.052;15.462;2023-04-25T04:13:37;14.95;;;8.82;;
75930;SDS011;64609;47.052;15.462;2023-04-25T04:16:03;327.17;;;14.88;;
75930;SDS011;64609;47.052;15.462;2023-04-25T04:18:29;68.53;;;8.75;;
75930;SDS011;64609;47.052;15.462;2023-04-25T04:20:55;100.47;;;10.10;;
75930;SDS011;64609;47.052;15.462;2023-04-25T04:23:23;82.47;;;9.63;;
75930;SDS011;64609;47.052;15.462;2023-04-25T04:25:48;17.38;;;8.75;;
75930;SDS011;64609;47.052;15.462;2023-04-25T04:28:14;51.55;;;9.32;;
75930;SDS011;64609;47.052;15.462;2023-04-25T04:30:41;63.55;;;9.07;;
75930;SDS011;64609;47.052;15.462;2023-04-25T04:33:07;31.95;;;9.25;;
75930;SDS011;64609;47.052;15.462;2023-04-25T04:35:33;16.30;;;8.85;;
75930;SDS011;64609;47.052;15.462;2023-04-25T04:37:59;67.32;;;10.30;;
75930;SDS011;64609;47.052;15.462;2023-04-25T04:40:24;27.33;;;9.95;;
75930;SDS011;64609;47.052;15.462;2023-04-25T04:42:50;19.40;;;9.10;;
75930;SDS011;64609;47.052;15.462;2023-04-25T04:45:16;54.83;;;10.07;;
75930;SDS011;64609;47.052;15.462;2023-04-25T04:47:43;13.80;;;8.13;;
75930;SDS011;64609;47.052;15.462;2023-04-25T04:50:09;40.35;;;8.90;;
75930;SDS011;64609;47.052;15.462;2023-04-25T04:52:35;55.08;;;9.27;;
75930;SDS011;64609;47.052;15.462;2023-04-25T04:55:02;30.30;;;8.98;;
75930;SDS011;64609;47.052;15.462;2023-04-25T04:57:29;12.95;;;8.10;;
75930;SDS011;64609;47.052;15.462;2023-04-25T04:59:54;27.90;;;8.93;;
75930;SDS011;64609;47.052;15.462;2023-04-25T05:02:20;16.23;;;8.02;;
75930;SDS011;64609;47.052;15.462;2023-04-25T05:04:46;17.15;;;8.52;;
75930;SDS011;64609;47.052;15.462;2023-04-25T05:07:12;15.88;;;8.82;;
75930;SDS011;64609;47.052;15.462;2023-04-25T05:09:38;11.93;;;8.70;;
75930;SDS011;64609;47.052;15.462;2023-04-25T05:12:04;14.25;;;8.90;;
75930;SDS011;64609;47.052;15.462;2023-04-25T05:14:30;37.88;;;8.65;;
75930;SDS011;64609;47.052;15.462;2023-04-25T05:16:56;13.18;;;8.18;;
75930;SDS011;64609;47.052;15.462;2023-04-25T05:19:21;13.85;;;7.75;;
75930;SDS011;64609;47.052;15.462;2023-04-25T05:21:48;43.75;;;9.50;;
75930;SDS011;64609;47.052;15.462;2023-04-25T05:24:15;17.98;;;7.88;;
75930;SDS011;64609;47.052;15.462;2023-04-25T05:26:40;10.25;;;8.18;;
75930;SDS011;64609;47.052;15.462;2023-04-25T05:29:06;11.95;;;8.02;;
75930;SDS011;64609;47.052;15.462;2023-04-25T05:31:32;9.88;;;8.52;;
75930;SDS011;64609;47.052;15.462;2023-04-25T05:33:58;10.57;;;7.43;;
75930;SDS011;64609;47.052;15.462;2023-04-25T05:36:23;20.95;;;9.10;;
75930;SDS011;64609;47.052;15.462;2023-04-25T05:38:49;11.10;;;7.57;;
75930;SDS011;64609;47.052;15.462;2023-04-25T05:41:14;12.27;;;8.00;;
75930;SDS011;64609;47.052;15.462;2023-04-25T05:43:40;15.52;;;8.02;;
75930;SDS011;64609;47.052;15.462;2023-04-25T05:46:10;25.17;;;8.40;;
75930;SDS011;64609;47.052;15.462;2023-04-25T05:48:36;26.38;;;8.38;;
75930;SDS011;64609;47.052;15.462;2023-04-25T05:51:02;22.42;;;8.70;;
75930;SDS011;64609;47.052;15.462;2023-04-25T05:53:28;12.30;;;7.78;;
75930;SDS011;64609;47.052;15.462;2023-04-25T05:55:53;13.45;;;8.00;;
75930;SDS011;64609;47.052;15.462;2023-04-25T05:58:19;13.07;;;8.35;;
75930;SDS011;64609;47.052;15.462;2023-04-25T06:00:45;11.48;;;7.72;;
75930;SDS011;64609;47.052;15.462;2023-04-25T06:03:11;12.68;;;7.45;;
75930;SDS011;64609;47.052;15.462;2023-04-25T06:05:39;11.02;;;7.07;;
75930;SDS011;64609;47.052;15.462;2023-04-25T06:08:06;7.93;;;6.50;;
75930;SDS011;64609;47.052;15.462;2023-04-25T06:10:31;10.38;;;7.22;;
75930;SDS011;64609;47.052;15.462;2023-04-25T06:12:57;13.65;;;7.50;;
75930;SDS011;64609;47.052;15.462;2023-04-25T06:15:23;10.98;;;8.18;;
75930;SDS011;64609;47.052;15.462;2023-04-25T06:17:48;10.57;;;8.35;;
75930;SDS011;64609;47.052;15.462;2023-04-25T06:20:14;13.52;;;8.63;;
75930;SDS011;64609;47.052;15.462;2023-04-25T06:22:40;12.90;;;9.55;;
75930;SDS011;64609;47.052;15.462;2023-04-25T06:25:06;11.60;;;9.15;;
75930;SDS011;64609;47.052;15.462;2023-04-25T06:27:32;13.15;;;9.70;;
75930;SDS011;64609;47.052;15.462;2023-04-25T06:29:58;13.18;;;8.68;;
75930;SDS011;64609;47.052;15.462;2023-04-25T06:32:24;16.83;;;9.77;;
75930;SDS011;64609;47.052;15.462;2023-04-25T06:34:51;13.95;;;9.38;;
75930;SDS011;64609;47.052;15.462;2023-04-25T06:37:16;12.45;;;9.13;;
75930;SDS011;64609;47.052;15.462;2023-04-25T06:39:42;18.75;;;9.30;;
75930;SDS011;64609;47.052;15.462;2023-04-25T06:42:08;17.13;;;8.55;;
75930;SDS011;64609;47.052;15.462;2023-04-25T06:44:33;9.30;;;7.28;;
75930;SDS011;64609;47.052;15.462;2023-04-25T06:46:59;12.43;;;7.60;;
75930;SDS011;64609;47.052;15.462;2023-04-25T06:49:24;13.27;;;7.32;;
75930;SDS011;64609;47.052;15.462;2023-04-25T06:51:50;11.07;;;7.50;;
75930;SDS011;64609;47.052;15.462;2023-04-25T06:54:15;8.93;;;6.80;;
75930;SDS011;64609;47.052;15.462;2023-04-25T06:56:42;10.18;;;6.72;;
75930;SDS011;64609;47.052;15.462;2023-04-25T06:59:08;11.63;;;7.38;;
75930;SDS011;64609;47.052;15.462;2023-04-25T07:01:34;11.43;;;6.78;;
75930;SDS011;64609;47.052;15.462;2023-04-25T07:04:00;8.15;;;6.35;;
75930;SDS011;64609;47.052;15.462;2023-04-25T07:06:26;8.32;;;5.35;;
75930;SDS011;64609;47.052;15.462;2023-04-25T07:08:52;9.75;;;5.25;;
75930;SDS011;64609;47.052;15.462;2023-04-25T07:11:18;7.30;;;4.90;;
75930;SDS011;64609;47.052;15.462;2023-04-25T07:13:44;7.47;;;5.53;;
75930;SDS011;64609;47.052;15.462;2023-04-25T07:16:10;6.68;;;4.95;;
75930;SDS011;64609;47.052;15.462;2023-04-25T07:18:35;9.45;;;4.72;;
75930;SDS011;64609;47.052;15.462;2023-04-25T07:21:01;9.07;;;4.97;;
75930;SDS011;64609;47.052;15.462;2023-04-25T07:23:27;7.10;;;5.03;;
75930;SDS011;64609;47.052;15.462;2023-04-25T07:25:52;7.68;;;5.32;;
75930;SDS011;64609;47.052;15.462;2023-04-25T07:28:18;13.88;;;5.70;;
75930;SDS011;64609;47.052;15.462;2023-04-25T07:30:44;11.98;;;5.10;;
75930;SDS011;64609;47.052;15.462;2023-04-25T07:33:09;18.95;;;5.00;;
75930;SDS011;64609;47.052;15.462;2023-04-25T07:35:35;9.98;;;4.50;;
75930;SDS011;64609;47.052;15.462;2023-04-25T07:38:01;9.90;;;5.75;;
75930;SDS011;64609;47.052;15.462;2023-04-25T07:40:28;10.75;;;5.05;;
75930;SDS011;64609;47.052;15.462;2023-04-25T07:42:53;8.48;;;4.60;;
75930;SDS011;64609;47.052;15.462;2023-04-25T07:45:19;10.70;;;4.32;;
75930;SDS011;64609;47.052;15.462;2023-04-25T07:47:45;9.52;;;4.40;;
75930;SDS011;64609;47.052;15.462;2023-04-25T07:50:10;7.38;;;3.72;;
75930;SDS011;64609;47.052;15.462;2023-04-25T07:52:36;5.43;;;3.30;;
75930;SDS011;64609;47.052;15.462;2023-04-25T07:55:02;5.53;;;3.45;;
75930;SDS011;64609;47.052;15.462;2023-04-25T07:57:28;4.60;;;3.22;;
75930;SDS011;64609;47.052;15.462;2023-04-25T07:59:54;4.38;;;2.33;;
75930;SDS011;64609;47.052;15.462;2023-04-25T08:02:20;4.50;;;2.50;;
75930;SDS011;64609;47.052;15.462;2023-04-25T08:04:45;5.30;;;2.38;;
75930;SDS011;64609;47.052;15.462;2023-04-25T08:07:11;1.85;;;1.27;;
75930;SDS011;64609;47.052;15.462;2023-04-25T08:09:37;2.85;;;1.10;;
75930;SDS011;64609;47.052;15.462;2023-04-25T08:12:03;3.75;;;1.45;;
75930;SDS011;64609;47.052;15.462;2023-04-25T08:14:29;3.88;;;2.10;;
75930;SDS011;64609;47.052;15.462;2023-04-25T08:17:00;3.67;;;1.48;;
75930;SDS011;64609;47.052;15.462;2023-04-25T08:19:28;4.78;;;1.00;;
75930;SDS011;64609;47.052;15.462;2023-04-25T08:21:55;2.55;;;1.10;;
75930;SDS011;64609;47.052;15.462;2023-04-25T08:24:21;1.60;;;1.20;;
75930;SDS011;64609;47.052;15.462;2023-04-25T08:26:47;2.30;;;1.33;;
75930;SDS011;64609;47.052;15.462;2023-04-25T08:29:13;3.38;;;1.20;;
75930;SDS011;64609;47.052;15.462;2023-04-25T08:31:39;2.13;;;1.10;;
75930;SDS011;64609;47.052;15.462;2023-04-25T08:34:05;1.77;;;1.10;;
75930;SDS011;64609;47.052;15.462;2023-04-25T08:36:30;2.72;;;1.30;;
75930;SDS011;64609;47.052;15.462;2023-04-25T08:38:57;3.20;;;1.23;;
75930;SDS011;64609;47.052;15.462;2023-04-25T08:41:23;3.20;;;1.35;;
75930;SDS011;64609;47.052;15.462;2023-04-25T08:43:50;2.78;;;1.40;;
75930;SDS011;64609;47.052;15.462;2023-04-25T08:46:19;4.32;;;1.40;;
75930;SDS011;64609;47.052;15.462;2023-04-25T08:48:45;1.85;;;1.20;;
75930;SDS011;64609;47.052;15.462;2023-04-25T08:51:53;2.50;;;1.15;;
75930;SDS011;64609;47.052;15.462;2023-04-25T08:54:10;4.50;;;1.40;;
75930;SDS011;64609;47.052;15.462;2023-04-25T08:56:40;1.45;;;1.25;;
75930;SDS011;64609;47.052;15.462;2023-04-25T08:59:09;3.33;;;1.30;;
75930;SDS011;64609;47.052;15.462;2023-04-25T09:01:35;4.90;;;1.48;;
75930;SDS011;64609;47.052;15.462;2023-04-25T09:04:01;2.97;;;1.15;;
75930;SDS011;64609;47.052;15.462;2023-04-25T09:06:28;1.35;;;1.10;;
75930;SDS011;64609;47.052;15.462;2023-04-25T09:08:55;1.55;;;1.20;;
75930;SDS011;64609;47.052;15.462;2023-04-25T09:11:30;1.20;;;1.10;;
75930;SDS011;64609;47.052;15.462;2023-04-25T09:14:15;8.52;;;1.20;;
75930;SDS011;64609;47.052;15.462;2023-04-25T09:19:25;1.58;;;1.10;;
75930;SDS011;64609;47.052;15.462;2023-04-25T09:21:53;3.15;;;1.02;;
75930;SDS011;64609;47.052;15.462;2023-04-25T09:27:09;1.92;;;1.15;;
75930;SDS011;64609;47.052;15.462;2023-04-25T09:29:37;1.75;;;1.40;;
75930;SDS011;64609;47.052;15.462;2023-04-25T09:32:17;3.25;;;1.38;;
75930;SDS011;64609;47.052;15.462;2023-04-25T09:34:48;3.53;;;1.33;;
75930;SDS011;64609;47.052;15.462;2023-04-25T09:37:19;6.55;;;1.42;;
75930;SDS011;64609;47.052;15.462;2023-04-25T09:39:47;2.88;;;1.33;;
75930;SDS011;64609;47.052;15.462;2023-04-25T09:42:23;5.55;;;1.20;;
75930;SDS011;64609;47.052;15.462;2023-04-25T09:44:51;2.95;;;1.15;;
75930;SDS011;64609;47.052;15.462;2023-04-25T09:47:22;2.05;;;1.13;;
75930;SDS011;64609;47.052;15.462;2023-04-25T09:49:48;2.70;;;1.10;;
75930;SDS011;64609;47.052;15.462;2023-04-25T09:52:15;1.35;;;1.20;;
75930;SDS011;64609;47.052;15.462;2023-04-25T09:54:43;3.47;;;1.40;;
75930;SDS011;64609;47.052;15.462;2023-04-25T09:57:10;3.28;;;1.10;;
75930;SDS011;64609;47.052;15.462;2023-04-25T09:59:45;2.30;;;1.25;;
75930;SDS011;64609;47.052;15.462;2023-04-25T10:02:12;2.65;;;1.38;;
75930;SDS011;64609;47.052;15.462;2023-04-25T10:04:44;2.72;;;1.30;;
75930;SDS011;64609;47.052;15.462;2023-04-25T10:07:12;1.95;;;1.13;;
75930;SDS011;64609;47.052;15.462;2023-04-25T10:09:39;4.53;;;1.10;;
75930;SDS011;64609;47.052;15.462;2023-04-25T10:12:05;2.70;;;1.08;;
75930;SDS011;64609;47.052;15.462;2023-04-25T10:14:32;1.65;;;0.95;;
75930;SDS011;64609;47.052;15.462;2023-04-25T10:16:58;1.13;;;0.95;;
75930;SDS011;64609;47.052;15.462;2023-04-25T10:19:25;2.72;;;1.40;;
75930;SDS011;64609;47.052;15.462;2023-04-25T10:22:14;1.58;;;1.02;;
75930;SDS011;64609;47.052;15.462;2023-04-25T10:24:59;3.60;;;1.13;;
75930;SDS011;64609;47.052;15.462;2023-04-25T10:27:28;2.45;;;1.23;;
75930;SDS011;64609;47.052;15.462;2023-04-25T10:30:02;3.53;;;1.33;;
75930;SDS011;64609;47.052;15.462;2023-04-25T10:32:37;5.00;;;1.50;;
75930;SDS011;64609;47.052;15.462;2023-04-25T10:35:16;2.67;;;1.10;;
75930;SDS011;64609;47.052;15.462;2023-04-25T10:40:34;2.45;;;1.05;;
75930;SDS011;64609;47.052;15.462;2023-04-25T10:45:53;2.63;;;1.10;;
75930;SDS011;64609;47.052;15.462;2023-04-25T10:48:26;2.13;;;1.17;;
75930;SDS011;64609;47.052;15.462;2023-04-25T10:51:10;3.35;;;1.20;;
75930;SDS011;64609;47.052;15.462;2023-04-25T10:53:40;3.25;;;1.40;;
75930;SDS011;64609;47.052;15.462;2023-04-25T10:56:25;2.13;;;1.20;;
75930;SDS011;64609;47.052;15.462;2023-04-25T10:59:02;1.35;;;0.90;;
75930;SDS011;64609;47.052;15.462;2023-04-25T11:01:35;2.10;;;1.10;;
75930;SDS011;64609;47.052;15.462;2023-04-25T11:04:02;2.33;;;1.17;;
75930;SDS011;64609;47.052;15.462;2023-04-25T11:06:29;4.63;;;1.50;;
75930;SDS011;64609;47.052;15.462;2023-04-25T11:08:57;3.17;;;1.42;;
75930;SDS011;64609;47.052;15.462;2023-04-25T11:11:26;2.03;;;1.20;;
75930;SDS011;64609;47.052;15.462;2023-04-25T11:13:52;2.05;;;1.10;;
75930;SDS011;64609;47.052;15.462;2023-04-25T11:16:17;1.75;;;0.90;;
75930;SDS011;64609;47.052;15.462;2023-04-25T11:18:43;2.10;;;1.10;;
75930;SDS011;64609;47.052;15.462;2023-04-25T11:21:10;2.42;;;1.13;;
75930;SDS011;64609;47.052;15.462;2023-04-25T11:23:36;4.47;;;1.13;;
75930;SDS011;64609;47.052;15.462;2023-04-25T11:26:03;3.30;;;1.15;;
75930;SDS011;64609;47.052;15.462;2023-04-25T11:28:29;2.45;;;1.00;;
75930;SDS011;64609;47.052;15.462;2023-04-25T11:30:55;4.03;;;1.25;;
75930;SDS011;64609;47.052;15.462;2023-04-25T11:33:24;2.83;;;1.40;;
75930;SDS011;64609;47.052;15.462;2023-04-25T11:35:55;2.95;;;1.05;;
75930;SDS011;64609;47.052;15.462;2023-04-25T11:38:21;2.42;;;1.30;;
75930;SDS011;64609;47.052;15.462;2023-04-25T11:40:51;2.30;;;1.10;;
75930;SDS011;64609;47.052;15.462;2023-04-25T11:43:20;2.17;;;1.23;;
75930;SDS011;64609;47.052;15.462;2023-04-25T11:45:46;2.25;;;1.20;;
75930;SDS011;64609;47.052;15.462;2023-04-25T11:48:16;3.05;;;1.17;;
75930;SDS011;64609;47.052;15.462;2023-04-25T11:50:42;4.68;;;1.30;;
75930;SDS011;64609;47.052;15.462;2023-04-25T11:53:08;2.70;;;1.08;;
75930;SDS011;64609;47.052;15.462;2023-04-25T11:55:35;2.72;;;1.10;;
75930;SDS011;64609;47.052;15.462;2023-04-25T11:58:01;1.77;;;1.10;;
75930;SDS011;64609;47.052;15.462;2023-04-25T12:00:28;3.72;;;1.00;;
75930;SDS011;64609;47.052;15.462;2023-04-25T12:02:56;5.47;;;1.40;;
75930;SDS011;64609;47.052;15.462;2023-04-25T12:05:26;2.08;;;1.20;;
75930;SDS011;64609;47.052;15.462;2023-04-25T12:07:53;5.13;;;1.00;;
75930;SDS011;64609;47.052;15.462;2023-04-25T12:10:20;1.63;;;1.02;;
75930;SDS011;64609;47.052;15.462;2023-04-25T12:12:46;1.83;;;1.00;;
75930;SDS011;64609;47.052;15.462;2023-04-25T12:15:13;1.27;;;0.88;;
75930;SDS011;64609;47.052;15.462;2023-04-25T12:17:48;2.58;;;1.10;;
75930;SDS011;64609;47.052;15.462;2023-04-25T12:20:16;2.28;;;1.10;;
75930;SDS011;64609;47.052;15.462;2023-04-25T12:22:44;2.40;;;1.10;;
75930;SDS011;64609;47.052;15.462;2023-04-25T12:25:11;3.53;;;1.40;;
75930;SDS011;64609;47.052;15.462;2023-04-25T12:28:19;2.65;;;1.25;;
75930;SDS011;64609;47.052;15.462;2023-04-25T12:33:24;4.63;;;1.20;;
75930;SDS011;64609;47.052;15.462;2023-04-25T12:35:52;4.68;;;1.30;;
75930;SDS011;64609;47.052;15.462;2023-04-25T12:38:24;4.85;;;1.00;;
75930;SDS011;64609;47.052;15.462;2023-04-25T12:40:50;6.35;;;1.40;;
75930;SDS011;64609;47.052;15.462;2023-04-25T12:43:16;2.80;;;1.23;;
75930;SDS011;64609;47.052;15.462;2023-04-25T12:45:42;2.35;;;1.27;;
75930;SDS011;64609;47.052;15.462;2023-04-25T12:48:09;4.15;;;1.05;;
75930;SDS011;64609;47.052;15.462;2023-04-25T12:50:35;2.47;;;1.30;;
75930;SDS011;64609;47.052;15.462;2023-04-25T12:53:00;2.70;;;1.02;;
75930;SDS011;64609;47.052;15.462;2023-04-25T12:55:26;3.72;;;1.10;;
75930;SDS011;64609;47.052;15.462;2023-04-25T12:57:51;2.50;;;1.00;;
75930;SDS011;64609;47.052;15.462;2023-04-25T13:00:17;2.63;;;0.93;;
75930;SDS011;64609;47.052;15.462;2023-04-25T13:02:44;3.70;;;1.50;;
75930;SDS011;64609;47.052;15.462;2023-04-25T13:05:11;3.58;;;1.60;;
75930;SDS011;64609;47.052;15.462;2023-04-25T13:07:37;5.93;;;1.58;;
75930;SDS011;64609;47.052;15.462;2023-04-25T13:10:03;2.08;;;1.30;;
75930;SDS011;64609;47.052;15.462;2023-04-25T13:12:30;3.20;;;1.25;;
75930;SDS011;64609;47.052;15.462;2023-04-25T13:14:56;2.63;;;1.30;;
75930;SDS011;64609;47.052;15.462;2023-04-25T13:17:22;2.25;;;1.10;;
75930;SDS011;64609;47.052;15.462;2023-04-25T13:19:47;3.50;;;1.30;;
75930;SDS011;64609;47.052;15.462;2023-04-25T13:22:13;5.93;;;1.30;;
75930;SDS011;64609;47.052;15.462;2023-04-25T13:24:41;3.55;;;1.10;;
75930;SDS011;64609;47.052;15.462;2023-04-25T13:27:07;3.45;;;1.40;;
75930;SDS011;64609;47.052;15.462;2023-04-25T13:29:33;3.03;;;1.30;;
75930;SDS011;64609;47.052;15.462;2023-04-25T13:32:00;2.72;;;1.15;;
75930;SDS011;64609;47.052;15.462;2023-04-25T13:34:29;2.53;;;1.23;;
75930;SDS011;64609;47.052;15.462;2023-04-25T13:36:55;2.38;;;1.10;;
75930;SDS011;64609;47.052;15.462;2023-04-25T13:39:21;2.55;;;1.08;;
75930;SDS011;64609;47.052;15.462;2023-04-25T13:41:47;2.95;;;1.20;;
75930;SDS011;64609;47.052;15.462;2023-04-25T13:44:12;5.18;;;1.58;;
75930;SDS011;64609;47.052;15.462;2023-04-25T13:46:38;3.25;;;1.20;;
75930;SDS011;64609;47.052;15.462;2023-04-25T13:49:04;6.32;;;1.30;;
75930;SDS011;64609;47.052;15.462;2023-04-25T13:51:30;5.38;;;1.30;;
75930;SDS011;64609;47.052;15.462;2023-04-25T13:53:56;3.35;;;1.17;;
75930;SDS011;64609;47.052;15.462;2023-04-25T13:56:22;8.07;;;1.45;;
75930;SDS011;64609;47.052;15.462;2023-04-25T13:58:51;5.40;;;1.25;;
75930;SDS011;64609;47.052;15.462;2023-04-25T14:01:17;4.72;;;1.10;;
75930;SDS011;64609;47.052;15.462;2023-04-25T14:03:43;2.88;;;1.25;;
75930;SDS011;64609;47.052;15.462;2023-04-25T14:06:10;1.40;;;1.08;;
75930;SDS011;64609;47.052;15.462;2023-04-25T14:08:37;6.22;;;1.23;;
75930;SDS011;64609;47.052;15.462;2023-04-25T14:11:03;3.78;;;1.20;;
75930;SDS011;64609;47.052;15.462;2023-04-25T14:13:29;2.80;;;1.23;;
75930;SDS011;64609;47.052;15.462;2023-04-25T14:15:55;1.98;;;1.10;;
75930;SDS011;64609;47.052;15.462;2023-04-25T14:18:21;3.75;;;1.30;;
75930;SDS011;64609;47.052;15.462;2023-04-25T14:20:46;2.17;;;1.13;;
75930;SDS011;64609;47.052;15.462;2023-04-25T14:23:12;1.90;;;1.15;;
75930;SDS011;64609;47.052;15.462;2023-04-25T14:25:38;2.17;;;0.90;;
75930;SDS011;64609;47.052;15.462;2023-04-25T14:28:05;2.45;;;1.25;;
75930;SDS011;64609;47.052;15.462;2023-04-25T14:30:31;2.13;;;1.17;;
75930;SDS011;64609;47.052;15.462;2023-04-25T14:32:56;6.10;;;1.60;;
75930;SDS011;64609;47.052;15.462;2023-04-25T14:35:22;3.50;;;1.10;;
75930;SDS011;64609;47.052;15.462;2023-04-25T14:37:48;2.38;;;1.00;;
75930;SDS011;64609;47.052;15.462;2023-04-25T14:40:13;3.33;;;1.20;;
75930;SDS011;64609;47.052;15.462;2023-04-25T14:42:40;4.68;;;1.23;;